ハリファックス の空港の天気 - METARとTAF

ハリファックス国際空港 ( CYHZ / YHZ ) - カナダ ノバスコシア州ハリファックス
飛行場実況気象(Metar)
観測時間12/16 03:00 AST (12/16 07:00 UTC)
風向・風速西 12m/s 瞬間風速23m/s
視程10km以上
天気現象
全天の8割程度の雲 雲底高度 1070m
気温-1℃
湿度59%
気圧1000.2hPa
METARCYHZ 160700Z 28024G44KT 15SM BKN035 M01/M08 A2952 RMK SC6 PRESRR SLP002
過去の天気等 Google飛行場航空写真 Wunderground天気予報

過去48時間のMETAR

飛行場予報(TAF)
発表時間: 12/16 01:38 AST (12/16 05:38 UTC)
予報対象時間: 16日2時 AST ~ 17日2時 AST
風向・風速西 9m/s 瞬間風速 14m/s
視程10km以上
全天の8割程度の雲 雲底高度 1220m
16日2時 AST ~ 16日5時 AST に一時的に
視程10km以上
天気現象弱いしゅう雪
全天の4割程度の雲 雲底高度 610m
全天を覆う雲 雲底高度 910m
16日5時 AST から
風向・風速西 13m/s 瞬間風速 21m/s
視程10km以上
全天の4割程度の雲 雲底高度 1220m
16日14時 AST から
風向・風速西 13m/s 瞬間風速 18m/s
視程10km以上
なし
16日16時 AST ~ 16日18時 AST に徐々に
風向・風速西 10m/s 瞬間風速 15m/s
17日0時 AST ~ 17日2時 AST に徐々に
風向・風速西 8m/s
TAF CYHZ 160538Z 1606/1706 27018G28KT P6SM BKN040
TEMPO 1606/1609 P6SM -SHSN SCT020 OVC030
FM160900 28025G40KT P6SM SCT040
FM161800 28025G35KT P6SM SKC
BECMG 1620/1622 28020G30KT
BECMG 1704/1706 28015KT RMK NXT FCST BY 160900Z